createdAt,value
2017-08-02T00:01:45.721Z,17.70
2017-08-02T00:04:14.631Z,17.70
2017-08-02T00:06:43.472Z,17.70
2017-08-02T00:09:14.711Z,17.80
2017-08-02T00:11:43.760Z,17.80
2017-08-02T00:14:12.164Z,17.80
2017-08-02T00:16:41.915Z,17.80
2017-08-02T00:19:10.178Z,17.90
2017-08-02T00:21:38.435Z,17.80
2017-08-02T00:24:06.671Z,18.00
2017-08-02T00:26:34.948Z,18.00
2017-08-02T00:29:03.198Z,17.80
2017-08-02T00:31:32.419Z,17.70
2017-08-02T00:34:01.033Z,17.70
2017-08-02T00:36:29.261Z,17.60
2017-08-02T00:38:57.549Z,17.60
2017-08-02T00:41:25.815Z,17.50
2017-08-02T00:43:54.106Z,17.40
2017-08-02T00:46:23.563Z,17.30
2017-08-02T00:48:52.628Z,17.20
2017-08-02T00:51:21.418Z,17.20
2017-08-02T00:53:51.369Z,17.20
2017-08-02T00:56:20.938Z,17.40
2017-08-02T00:58:50.660Z,17.40
2017-08-02T01:01:19.737Z,17.40
2017-08-02T01:03:47.987Z,17.40
2017-08-02T01:06:16.694Z,17.40
2017-08-02T01:08:44.972Z,17.50
2017-08-02T01:11:14.625Z,17.40
2017-08-02T01:13:45.042Z,17.30
2017-08-02T01:16:13.342Z,17.30
2017-08-02T01:18:43.429Z,17.30
2017-08-02T01:21:11.703Z,17.20
2017-08-02T01:23:39.938Z,17.30
2017-08-02T01:26:09.273Z,17.30
2017-08-02T01:28:38.145Z,17.40
2017-08-02T01:31:07.787Z,17.50
2017-08-02T01:33:36.243Z,17.50
2017-08-02T01:36:05.412Z,17.30
2017-08-02T01:38:33.682Z,17.10
2017-08-02T01:41:02.748Z,17.00
2017-08-02T01:43:30.971Z,17.00
2017-08-02T01:45:59.253Z,17.00
2017-08-02T01:48:27.562Z,17.10
2017-08-02T01:50:55.845Z,17.20
2017-08-02T01:53:24.115Z,17.30
2017-08-02T01:55:52.393Z,17.30
2017-08-02T01:58:20.651Z,17.30
2017-08-02T02:00:48.923Z,17.30
2017-08-02T02:03:17.203Z,17.30
2017-08-02T02:05:45.469Z,17.30
2017-08-02T02:08:13.714Z,17.30
2017-08-02T02:10:42.002Z,17.30
2017-08-02T02:13:11.016Z,17.30
2017-08-02T02:15:39.307Z,17.30
2017-08-02T02:18:09.876Z,17.40
2017-08-02T02:20:42.360Z,17.50
2017-08-02T02:23:11.524Z,17.50
2017-08-02T02:25:39.739Z,17.40
2017-08-02T02:28:09.470Z,17.40
2017-08-02T02:30:38.532Z,17.40
2017-08-02T02:33:06.794Z,17.40
2017-08-02T02:35:35.072Z,17.30
2017-08-02T02:38:04.247Z,17.40
2017-08-02T02:40:33.954Z,17.40
2017-08-02T02:43:02.247Z,17.20
2017-08-02T02:45:30.521Z,17.10
2017-08-02T02:47:58.757Z,17.00
2017-08-02T02:50:27.779Z,17.10
2017-08-02T02:52:56.059Z,17.00
2017-08-02T02:55:24.321Z,17.10
2017-08-02T02:57:52.586Z,17.00
2017-08-02T03:00:21.588Z,17.10
2017-08-02T03:02:49.856Z,17.10
2017-08-02T03:05:18.903Z,17.10
2017-08-02T03:07:47.155Z,17.10
2017-08-02T03:10:15.420Z,17.10
2017-08-02T03:12:43.677Z,17.00
2017-08-02T03:15:12.730Z,17.00
2017-08-02T03:17:41.421Z,17.10
2017-08-02T03:20:09.658Z,17.00
2017-08-02T03:22:37.928Z,17.00
2017-08-02T03:25:06.200Z,17.10
2017-08-02T03:27:34.512Z,17.10
2017-08-02T03:30:02.758Z,17.10
2017-08-02T03:32:31.018Z,17.10
2017-08-02T03:35:00.080Z,17.20
2017-08-02T03:37:28.350Z,17.20
2017-08-02T03:39:56.605Z,17.20
2017-08-02T03:42:24.841Z,17.10
2017-08-02T03:44:53.119Z,17.10
2017-08-02T03:47:22.169Z,17.20
2017-08-02T03:49:50.430Z,17.20
2017-08-02T03:52:18.696Z,17.10
2017-08-02T03:54:46.965Z,17.10
2017-08-02T03:57:15.227Z,17.10
2017-08-02T03:59:44.241Z,17.10
2017-08-02T04:02:13.365Z,17.10
2017-08-02T04:04:41.630Z,17.10
2017-08-02T04:07:09.907Z,17.20
2017-08-02T04:09:38.179Z,17.10
2017-08-02T04:12:06.426Z,17.10
2017-08-02T04:14:35.464Z,17.00
2017-08-02T04:17:03.725Z,17.00
2017-08-02T04:19:35.048Z,17.10
2017-08-02T04:22:04.274Z,17.10
2017-08-02T04:24:33.451Z,17.00
2017-08-02T04:27:02.475Z,16.90
2017-08-02T04:29:31.567Z,16.90
2017-08-02T04:31:59.819Z,17.00
2017-08-02T04:34:28.827Z,17.00
2017-08-02T04:36:57.116Z,17.00
2017-08-02T04:39:25.376Z,17.00
2017-08-02T04:41:54.395Z,17.10
2017-08-02T04:44:22.653Z,17.10
2017-08-02T04:46:50.938Z,17.10
2017-08-02T04:49:19.194Z,17.20
2017-08-02T04:51:48.186Z,17.30
2017-08-02T04:54:17.260Z,17.30
2017-08-02T04:56:45.477Z,17.30
2017-08-02T04:59:13.782Z,17.40
2017-08-02T05:01:42.006Z,17.50
2017-08-02T05:04:11.065Z,17.60
2017-08-02T05:06:39.362Z,17.60
2017-08-02T05:09:07.626Z,17.60
2017-08-02T05:11:35.982Z,17.60
2017-08-02T05:14:04.225Z,17.60
2017-08-02T05:16:33.395Z,17.70
2017-08-02T05:19:03.048Z,17.70
2017-08-02T05:21:32.682Z,17.70
2017-08-02T05:24:00.940Z,17.70
2017-08-02T05:26:29.200Z,17.80
2017-08-02T05:28:57.485Z,17.90
2017-08-02T05:31:25.727Z,18.00
2017-08-02T05:33:54.051Z,18.00
2017-08-02T05:36:22.288Z,18.20
2017-08-02T05:38:51.343Z,18.40
2017-08-02T05:41:19.627Z,18.40
2017-08-02T05:43:47.863Z,18.60
2017-08-02T05:46:16.135Z,18.70
2017-08-02T05:48:46.367Z,18.90
2017-08-02T05:51:14.634Z,18.90
2017-08-02T05:53:42.960Z,19.00
2017-08-02T05:56:11.189Z,19.10
2017-08-02T05:58:41.835Z,19.10
2017-08-02T06:01:10.115Z,19.20
2017-08-02T06:03:38.362Z,19.30
2017-08-02T06:06:07.395Z,19.50
2017-08-02T06:08:35.676Z,19.40
2017-08-02T06:11:04.647Z,19.50
2017-08-02T06:13:32.913Z,19.60
2017-08-02T06:16:02.119Z,19.70
2017-08-02T06:18:30.394Z,19.70
2017-08-02T06:20:58.665Z,19.90
2017-08-02T06:23:26.910Z,20.10
2017-08-02T06:25:56.103Z,20.30
2017-08-02T06:28:24.397Z,20.20
2017-08-02T06:30:52.694Z,20.20
2017-08-02T06:33:20.915Z,20.20
2017-08-02T06:35:49.171Z,20.20
2017-08-02T06:38:17.441Z,20.30
2017-08-02T06:40:45.712Z,20.40
2017-08-02T06:43:14.746Z,20.60
2017-08-02T06:45:43.040Z,20.50
2017-08-02T06:48:11.314Z,20.70
2017-08-02T06:50:39.562Z,20.90
2017-08-02T06:53:07.814Z,20.90
2017-08-02T06:55:36.065Z,20.90
2017-08-02T06:58:05.095Z,20.90
2017-08-02T07:00:33.598Z,20.90
2017-08-02T07:03:01.833Z,20.90
2017-08-02T07:05:30.127Z,21.00
2017-08-02T07:07:59.118Z,21.20
2017-08-02T07:10:28.117Z,21.20
2017-08-02T07:12:57.805Z,21.40
2017-08-02T07:15:26.886Z,21.50
2017-08-02T07:17:55.120Z,21.50
2017-08-02T07:20:23.487Z,21.70
2017-08-02T07:22:52.529Z,21.70
2017-08-02T07:25:22.117Z,21.80
2017-08-02T07:27:51.199Z,22.00
2017-08-02T07:30:20.293Z,22.20
2017-08-02T07:32:49.394Z,22.40
2017-08-02T07:35:19.318Z,22.40
2017-08-02T07:37:47.554Z,22.50
2017-08-02T07:40:16.604Z,22.50
2017-08-02T07:42:44.954Z,22.50
2017-08-02T07:45:14.034Z,22.40
2017-08-02T07:47:42.639Z,22.50
2017-08-02T07:50:11.681Z,22.60
2017-08-02T07:52:39.951Z,22.60
2017-08-02T07:55:08.222Z,22.80
2017-08-02T07:57:37.406Z,22.90
2017-08-02T08:00:05.763Z,22.90
2017-08-02T08:02:34.750Z,23.10
2017-08-02T08:05:02.990Z,23.10
2017-08-02T08:07:31.990Z,23.60
2017-08-02T08:10:01.438Z,23.60
2017-08-02T08:12:29.670Z,23.60
2017-08-02T08:14:58.685Z,23.70
2017-08-02T08:17:26.947Z,23.60
2017-08-02T08:19:55.962Z,24.10
2017-08-02T08:22:24.211Z,24.00
2017-08-02T08:24:52.475Z,24.20
2017-08-02T08:27:20.782Z,24.30
2017-08-02T08:29:49.116Z,24.20
2017-08-02T08:32:17.427Z,24.10
2017-08-02T08:34:45.693Z,24.20
2017-08-02T08:37:13.951Z,24.30
2017-08-02T08:39:42.212Z,24.40
2017-08-02T08:42:10.485Z,24.50
2017-08-02T08:44:38.757Z,24.50
2017-08-02T08:47:07.795Z,24.60
2017-08-02T08:49:36.846Z,24.30
2017-08-02T08:52:05.085Z,24.30
2017-08-02T08:54:34.110Z,24.80
2017-08-02T08:57:02.801Z,24.80
2017-08-02T08:59:31.025Z,25.20
2017-08-02T09:01:59.279Z,25.10
2017-08-02T09:04:27.568Z,25.20
2017-08-02T09:06:55.839Z,25.20
2017-08-02T09:09:25.690Z,24.40
2017-08-02T09:11:55.761Z,24.40
2017-08-02T09:14:23.997Z,24.50
2017-08-02T09:16:52.403Z,24.50
2017-08-02T09:19:21.560Z,24.60
2017-08-02T09:21:50.615Z,24.80
2017-08-02T09:24:19.253Z,24.80
2017-08-02T09:26:47.519Z,25.00
2017-08-02T09:29:16.530Z,24.20
2017-08-02T09:31:46.795Z,24.20
2017-08-02T09:34:18.587Z,24.50
2017-08-02T09:36:49.367Z,24.90
2017-08-02T09:39:19.287Z,24.90
2017-08-02T09:41:47.550Z,25.00
2017-08-02T09:44:15.818Z,25.30
2017-08-02T09:46:44.654Z,24.90
2017-08-02T09:49:13.265Z,25.10
2017-08-02T09:51:44.370Z,25.10
2017-08-02T09:54:16.008Z,25.10
2017-08-02T09:56:45.107Z,24.30
2017-08-02T09:59:13.363Z,24.30
2017-08-02T10:01:41.988Z,24.30
2017-08-02T10:04:10.260Z,24.20
2017-08-02T10:06:39.519Z,24.60
2017-08-02T10:09:08.779Z,24.80
2017-08-02T10:11:38.218Z,24.90
2017-08-02T10:14:07.239Z,25.30
2017-08-02T10:16:35.510Z,25.30
2017-08-02T10:19:05.219Z,25.50
2017-08-02T10:21:34.231Z,25.50
2017-08-02T10:24:02.504Z,25.40
2017-08-02T10:26:33.707Z,25.20
2017-08-02T10:29:02.727Z,24.90
2017-08-02T10:31:31.028Z,24.90
2017-08-02T10:33:59.619Z,24.80
2017-08-02T10:36:27.986Z,25.10
2017-08-02T10:38:56.415Z,24.90
2017-08-02T10:41:25.872Z,24.70
2017-08-02T10:43:54.956Z,24.80
2017-08-02T10:46:23.594Z,24.70
2017-08-02T10:48:51.846Z,24.90
2017-08-02T10:51:20.165Z,25.10
2017-08-02T10:53:48.473Z,25.00
2017-08-02T10:56:17.473Z,24.40
2017-08-02T10:58:46.672Z,24.40
2017-08-02T11:01:14.953Z,24.70
2017-08-02T11:03:44.224Z,24.90
2017-08-02T11:06:12.513Z,24.70
2017-08-02T11:08:41.735Z,24.70
2017-08-02T11:11:10.023Z,24.90
2017-08-02T11:13:38.333Z,24.90
2017-08-02T11:16:06.605Z,25.30
2017-08-02T11:18:34.861Z,25.40
2017-08-02T11:21:04.293Z,25.20
2017-08-02T11:23:34.026Z,24.90
2017-08-02T11:26:02.952Z,24.80
2017-08-02T11:28:33.409Z,24.70
2017-08-02T11:31:01.812Z,25.10
2017-08-02T11:33:30.139Z,25.40
2017-08-02T11:35:58.580Z,25.80
2017-08-02T11:38:28.567Z,26.00
2017-08-02T11:40:57.723Z,26.20
2017-08-02T11:43:26.961Z,26.30
2017-08-02T11:45:55.360Z,26.20
2017-08-02T11:48:23.650Z,25.90
2017-08-02T11:50:52.815Z,25.50
2017-08-02T11:53:21.133Z,25.60
2017-08-02T11:55:49.416Z,25.90
2017-08-02T11:58:17.680Z,26.00
2017-08-02T12:00:46.705Z,26.30
2017-08-02T12:03:15.006Z,26.30
2017-08-02T12:05:43.281Z,26.10
2017-08-02T12:08:13.230Z,26.50
2017-08-02T12:10:41.516Z,26.50
2017-08-02T12:13:09.770Z,26.50
2017-08-02T12:15:38.054Z,26.00
2017-08-02T12:18:07.658Z,26.30
2017-08-02T12:20:35.941Z,26.30
2017-08-02T12:23:04.213Z,26.30
2017-08-02T12:25:32.980Z,26.20
2017-08-02T12:28:01.365Z,26.10
2017-08-02T12:30:29.615Z,26.40
2017-08-02T12:32:59.917Z,26.30
2017-08-02T12:35:28.964Z,26.30
2017-08-02T12:37:57.845Z,26.30
2017-08-02T12:40:26.234Z,26.30
2017-08-02T12:42:54.482Z,26.20
2017-08-02T12:45:22.751Z,26.60
2017-08-02T12:47:51.463Z,26.70
2017-08-02T12:50:19.715Z,26.70
2017-08-02T12:52:48.124Z,26.40
2017-08-02T12:55:16.371Z,26.00
2017-08-02T12:57:45.380Z,26.10
2017-08-02T13:00:13.635Z,26.20
2017-08-02T13:02:42.633Z,26.10
2017-08-02T13:05:12.561Z,26.00
2017-08-02T13:07:41.781Z,26.00
2017-08-02T13:10:10.827Z,26.10
2017-08-02T13:12:42.022Z,25.80
2017-08-02T13:15:10.339Z,26.00
2017-08-02T13:17:38.622Z,26.20
2017-08-02T13:20:07.604Z,26.10
2017-08-02T13:22:36.470Z,26.00
2017-08-02T13:25:05.900Z,26.30
2017-08-02T13:27:34.203Z,26.40
2017-08-02T13:30:03.216Z,26.30
2017-08-02T13:32:32.352Z,26.30
2017-08-02T13:35:01.522Z,26.50
2017-08-02T13:37:29.834Z,26.50
2017-08-02T13:39:58.107Z,26.70
2017-08-02T13:42:26.430Z,26.90
2017-08-02T13:44:54.717Z,26.90
2017-08-02T13:47:22.964Z,26.60
2017-08-02T13:49:51.203Z,26.40
2017-08-02T13:52:19.447Z,26.40
2017-08-02T13:54:48.478Z,26.20
2017-08-02T13:57:16.744Z,26.20
2017-08-02T13:59:44.976Z,26.40
2017-08-02T14:02:14.031Z,26.50
2017-08-02T14:04:42.269Z,26.30
2017-08-02T14:07:10.532Z,26.20
2017-08-02T14:09:38.771Z,26.40
2017-08-02T14:12:07.028Z,26.30
2017-08-02T14:14:36.204Z,26.10
2017-08-02T14:17:05.232Z,26.20
2017-08-02T14:19:33.491Z,26.20
2017-08-02T14:22:01.768Z,26.30
2017-08-02T14:24:30.011Z,26.40
2017-08-02T14:26:59.045Z,26.30
2017-08-02T14:29:27.316Z,26.30
2017-08-02T14:31:55.553Z,25.90
2017-08-02T14:34:24.580Z,25.30
2017-08-02T14:36:52.946Z,25.30
2017-08-02T14:39:22.065Z,25.00
2017-08-02T14:41:51.043Z,24.90
2017-08-02T14:44:19.364Z,24.90
2017-08-02T14:46:47.726Z,24.90
2017-08-02T14:49:17.002Z,25.00
2017-08-02T14:51:45.247Z,25.20
2017-08-02T14:54:14.300Z,25.50
2017-08-02T14:56:42.654Z,25.40
2017-08-02T14:59:11.645Z,25.70
2017-08-02T15:01:40.644Z,25.80
2017-08-02T15:04:08.902Z,25.80
2017-08-02T15:06:37.175Z,25.80
2017-08-02T15:09:06.815Z,25.90
2017-08-02T15:11:36.002Z,25.90
2017-08-02T15:14:05.240Z,26.10
2017-08-02T15:16:33.480Z,26.20
2017-08-02T15:19:01.750Z,26.20
2017-08-02T15:21:29.995Z,26.20
2017-08-02T15:23:59.852Z,26.20
2017-08-02T15:26:28.089Z,26.20
2017-08-02T15:28:56.348Z,26.00
2017-08-02T15:31:25.585Z,25.70
2017-08-02T15:33:54.640Z,25.80
2017-08-02T15:36:22.930Z,25.80
2017-08-02T15:38:51.280Z,25.80
2017-08-02T15:41:20.270Z,25.70
2017-08-02T15:43:49.025Z,25.50
2017-08-02T15:46:17.300Z,25.60
2017-08-02T15:48:46.467Z,25.30
2017-08-02T15:51:15.482Z,25.10
2017-08-02T15:53:43.974Z,25.10
2017-08-02T15:56:13.015Z,24.90
2017-08-02T15:58:42.824Z,24.90
2017-08-02T16:01:11.366Z,24.80
2017-08-02T16:03:39.678Z,24.60
2017-08-02T16:06:07.947Z,24.40
2017-08-02T16:08:36.209Z,24.30
2017-08-02T16:11:06.155Z,24.30
2017-08-02T16:13:36.231Z,24.20
2017-08-02T16:16:06.704Z,24.30
2017-08-02T16:18:35.501Z,24.30
2017-08-02T16:21:03.795Z,24.10
2017-08-02T16:23:35.074Z,24.00
2017-08-02T16:26:04.096Z,23.70
2017-08-02T16:28:32.374Z,23.60
2017-08-02T16:31:00.657Z,23.50
2017-08-02T16:33:31.681Z,23.30
2017-08-02T16:36:01.142Z,23.20
2017-08-02T16:38:29.371Z,23.00
2017-08-02T16:40:57.655Z,22.90
2017-08-02T16:43:26.802Z,22.90
2017-08-02T16:45:55.071Z,22.80
2017-08-02T16:48:23.377Z,22.80
2017-08-02T16:50:51.651Z,22.90
2017-08-02T16:53:19.939Z,22.90
2017-08-02T16:55:48.242Z,22.90
2017-08-02T16:58:16.485Z,22.90
2017-08-02T17:00:45.543Z,22.90
2017-08-02T17:03:15.198Z,22.90
2017-08-02T17:05:43.509Z,22.90
2017-08-02T17:08:13.324Z,22.80
2017-08-02T17:10:43.274Z,22.90
2017-08-02T17:13:11.552Z,22.70
2017-08-02T17:15:40.922Z,22.50
2017-08-02T17:18:09.195Z,22.50
2017-08-02T17:20:41.387Z,22.40
2017-08-02T17:23:11.382Z,22.50
2017-08-02T17:25:40.763Z,22.60
2017-08-02T17:28:12.108Z,22.50
2017-08-02T17:30:40.449Z,22.40
2017-08-02T17:33:10.162Z,22.30
2017-08-02T17:35:39.315Z,22.10
2017-08-02T17:38:08.712Z,22.00
2017-08-02T17:40:38.278Z,21.90
2017-08-02T17:43:08.024Z,21.80
2017-08-02T17:45:36.277Z,21.80
2017-08-02T17:48:05.335Z,21.70
2017-08-02T17:50:36.678Z,21.70
2017-08-02T17:53:06.915Z,21.70
2017-08-02T17:55:36.231Z,21.70
2017-08-02T17:58:06.435Z,21.60
2017-08-02T18:00:34.724Z,21.60
2017-08-02T18:03:04.509Z,21.60
2017-08-02T18:05:33.750Z,21.70
2017-08-02T18:08:02.814Z,21.60
2017-08-02T18:10:31.811Z,21.60
2017-08-02T18:13:00.069Z,21.60
2017-08-02T18:15:29.909Z,21.60
2017-08-02T18:17:58.198Z,21.80
2017-08-02T18:20:26.469Z,21.70
2017-08-02T18:22:54.800Z,21.80
2017-08-02T18:25:23.283Z,21.80
2017-08-02T18:27:51.566Z,21.80
2017-08-02T18:30:19.857Z,21.70
2017-08-02T18:32:48.184Z,21.70
2017-08-02T18:35:17.225Z,21.60
2017-08-02T18:37:46.560Z,21.60
2017-08-02T18:40:15.312Z,21.60
2017-08-02T18:42:43.569Z,21.70
2017-08-02T18:45:12.613Z,21.40
2017-08-02T18:47:42.782Z,21.40
2017-08-02T18:50:11.064Z,21.40
2017-08-02T18:52:39.459Z,21.30
2017-08-02T18:55:08.286Z,21.40
2017-08-02T18:57:36.576Z,21.20
2017-08-02T19:00:05.576Z,21.20
2017-08-02T19:02:34.613Z,21.00
2017-08-02T19:05:02.894Z,20.90
2017-08-02T19:07:31.171Z,20.90
2017-08-02T19:09:59.889Z,20.80
2017-08-02T19:12:28.228Z,20.90
2017-08-02T19:14:57.299Z,20.90
2017-08-02T19:17:28.035Z,20.80
2017-08-02T19:19:58.841Z,20.70
2017-08-02T19:22:29.908Z,20.70
2017-08-02T19:25:00.280Z,20.70
2017-08-02T19:27:30.155Z,20.70
2017-08-02T19:30:01.049Z,20.70
2017-08-02T19:32:29.904Z,20.70
2017-08-02T19:34:59.218Z,20.70
2017-08-02T19:37:29.339Z,20.90
2017-08-02T19:39:57.928Z,21.00
2017-08-02T19:42:26.637Z,21.00
2017-08-02T19:44:55.502Z,20.80
2017-08-02T19:47:23.831Z,20.60
2017-08-02T19:49:54.109Z,20.40
2017-08-02T19:52:22.706Z,20.40
2017-08-02T19:54:51.441Z,20.30
2017-08-02T19:57:21.832Z,20.30
2017-08-02T19:59:50.136Z,20.40
2017-08-02T20:02:20.431Z,20.40
2017-08-02T20:04:48.672Z,20.40
2017-08-02T20:07:17.808Z,20.50
2017-08-02T20:09:46.068Z,20.60
2017-08-02T20:12:15.872Z,20.60
2017-08-02T20:14:45.111Z,20.70
2017-08-02T20:17:17.553Z,20.50
2017-08-02T20:19:45.867Z,20.50
2017-08-02T20:22:14.939Z,20.40
2017-08-02T20:24:43.197Z,20.40
2017-08-02T20:27:12.274Z,20.50
2017-08-02T20:29:42.200Z,20.30
2017-08-02T20:32:11.283Z,20.30
2017-08-02T20:34:39.616Z,20.20
2017-08-02T20:37:09.594Z,20.40
2017-08-02T20:39:38.203Z,20.40
2017-08-02T20:42:07.295Z,20.40
2017-08-02T20:44:36.437Z,20.40
2017-08-02T20:47:05.574Z,20.40
2017-08-02T20:49:34.476Z,20.40
2017-08-02T20:52:03.617Z,20.50
2017-08-02T20:54:33.436Z,20.50
2017-08-02T20:57:04.241Z,20.60
2017-08-02T20:59:36.078Z,20.60
2017-08-02T21:02:05.727Z,20.50
2017-08-02T21:04:38.352Z,20.40
2017-08-02T21:07:08.544Z,20.30
2017-08-02T21:09:42.156Z,20.30
2017-08-02T21:12:12.001Z,20.30
2017-08-02T21:14:42.792Z,20.30
2017-08-02T21:17:12.485Z,20.30
2017-08-02T21:19:41.495Z,20.20
2017-08-02T21:22:13.410Z,20.20
2017-08-02T21:24:42.183Z,20.20
2017-08-02T21:27:10.466Z,20.10
2017-08-02T21:29:40.951Z,20.10
2017-08-02T21:32:10.273Z,19.90
2017-08-02T21:34:40.558Z,19.80
2017-08-02T21:37:09.695Z,19.80
2017-08-02T21:39:39.393Z,19.60
2017-08-02T21:42:08.459Z,19.70
2017-08-02T21:44:36.739Z,19.80
2017-08-02T21:47:06.733Z,19.90
2017-08-02T21:49:34.981Z,20.00
2017-08-02T21:52:09.017Z,20.10
2017-08-02T21:54:39.202Z,20.10
2017-08-02T21:57:07.468Z,19.90
2017-08-02T21:59:35.766Z,19.90
2017-08-02T22:02:05.716Z,19.80
2017-08-02T22:04:34.701Z,19.70
2017-08-02T22:07:02.991Z,19.90
2017-08-02T22:09:31.464Z,19.90
2017-08-02T22:12:01.090Z,19.80
2017-08-02T22:14:29.345Z,19.90
2017-08-02T22:16:58.805Z,19.80
2017-08-02T22:19:28.906Z,19.80
2017-08-02T22:21:58.763Z,19.60
2017-08-02T22:24:28.615Z,19.50
2017-08-02T22:26:57.960Z,19.50
2017-08-02T22:29:28.069Z,19.50
2017-08-02T22:31:57.183Z,19.50
2017-08-02T22:34:26.744Z,19.50
2017-08-02T22:36:54.998Z,19.40
2017-08-02T22:39:25.975Z,19.30
2017-08-02T22:41:55.110Z,19.40
2017-08-02T22:44:24.442Z,19.50
2017-08-02T22:46:56.505Z,19.50
2017-08-02T22:49:26.449Z,19.50
2017-08-02T22:51:56.122Z,19.40
2017-08-02T22:54:25.330Z,19.50
2017-08-02T22:56:53.652Z,19.40
2017-08-02T22:59:21.964Z,19.50
2017-08-02T23:01:51.323Z,19.40
2017-08-02T23:04:22.200Z,19.30
2017-08-02T23:06:50.538Z,19.30
2017-08-02T23:09:19.335Z,19.30
2017-08-02T23:11:48.050Z,19.30
2017-08-02T23:14:17.422Z,19.40
2017-08-02T23:16:45.669Z,19.40
2017-08-02T23:19:14.687Z,19.50
2017-08-02T23:21:42.941Z,19.60
2017-08-02T23:24:15.662Z,19.60
2017-08-02T23:26:44.998Z,19.50
2017-08-02T23:29:14.107Z,19.60
2017-08-02T23:31:43.115Z,19.60
2017-08-02T23:34:11.390Z,19.60
2017-08-02T23:36:39.690Z,19.70
2017-08-02T23:39:07.999Z,19.70
2017-08-02T23:41:36.271Z,19.80
2017-08-02T23:44:05.638Z,19.80
2017-08-02T23:46:34.495Z,19.80
2017-08-02T23:49:03.731Z,19.80
2017-08-02T23:51:32.001Z,19.70
2017-08-02T23:54:02.411Z,19.80
2017-08-02T23:56:32.754Z,19.70
2017-08-02T23:59:02.472Z,19.70
